sensor_id;sensor_type;location;lat;lon;timestamp;pressure;altitude;pressure_sealevel;temperature;humidity
29169;BME280;16219;42.864;23.360;2022-11-03T00:01:12;96405.88;;;11.87;100.00
29169;BME280;16219;42.864;23.360;2022-11-03T00:03:39;96399.31;;;11.84;100.00
29169;BME280;16219;42.864;23.360;2022-11-03T00:06:07;96408.34;;;11.83;100.00
29169;BME280;16219;42.864;23.360;2022-11-03T00:08:38;96403.16;;;11.78;100.00
29169;BME280;16219;42.864;23.360;2022-11-03T00:11:08;96400.66;;;11.73;100.00
29169;BME280;16219;42.864;23.360;2022-11-03T00:13:37;96410.13;;;11.74;100.00
29169;BME280;16219;42.864;23.360;2022-11-03T00:16:05;96401.63;;;11.77;100.00
29169;BME280;16219;42.864;23.360;2022-11-03T00:18:32;96390.69;;;11.70;100.00
29169;BME280;16219;42.864;23.360;2022-11-03T00:21:01;96400.81;;;11.76;100.00
29169;BME280;16219;42.864;23.360;2022-11-03T00:23:30;96402.97;;;11.74;100.00
29169;BME280;16219;42.864;23.360;2022-11-03T00:26:07;96406.72;;;11.73;100.00
29169;BME280;16219;42.864;23.360;2022-11-03T00:28:35;96411.69;;;11.75;100.00
29169;BME280;16219;42.864;23.360;2022-11-03T00:31:08;96401.50;;;11.60;100.00
29169;BME280;16219;42.864;23.360;2022-11-03T00:33:35;96398.09;;;11.68;100.00
29169;BME280;16219;42.864;23.360;2022-11-03T00:36:03;96402.34;;;11.69;100.00
29169;BME280;16219;42.864;23.360;2022-11-03T00:38:31;96403.88;;;11.70;100.00
29169;BME280;16219;42.864;23.360;2022-11-03T00:41:00;96411.94;;;11.65;100.00
29169;BME280;16219;42.864;23.360;2022-11-03T00:43:34;96409.91;;;11.62;100.00
29169;BME280;16219;42.864;23.360;2022-11-03T00:46:02;96409.31;;;11.65;100.00
29169;BME280;16219;42.864;23.360;2022-11-03T00:48:30;96410.22;;;11.60;100.00
29169;BME280;16219;42.864;23.360;2022-11-03T00:51:05;96414.28;;;11.66;100.00
29169;BME280;16219;42.864;23.360;2022-11-03T00:53:34;96414.28;;;11.66;100.00
29169;BME280;16219;42.864;23.360;2022-11-03T00:56:02;96385.69;;;11.46;100.00
29169;BME280;16219;42.864;23.360;2022-11-03T00:58:29;96410.88;;;11.66;100.00
29169;BME280;16219;42.864;23.360;2022-11-03T01:01:05;96414.28;;;11.66;100.00
29169;BME280;16219;42.864;23.360;2022-11-03T01:03:34;96413.50;;;11.66;100.00
29169;BME280;16219;42.864;23.360;2022-11-03T01:06:04;96410.88;;;11.66;100.00
29169;BME280;16219;42.864;23.360;2022-11-03T01:08:50;96407.63;;;11.69;100.00
29169;BME280;16219;42.864;23.360;2022-11-03T01:11:19;96409.50;;;11.68;100.00
29169;BME280;16219;42.864;23.360;2022-11-03T01:14:05;96417.25;;;11.65;100.00
29169;BME280;16219;42.864;23.360;2022-11-03T01:16:33;96409.72;;;11.58;100.00
29169;BME280;16219;42.864;23.360;2022-11-03T01:19:00;96414.22;;;11.58;100.00
29169;BME280;16219;42.864;23.360;2022-11-03T01:21:28;96383.84;;;11.46;100.00
29169;BME280;16219;42.864;23.360;2022-11-03T01:23:55;96400.41;;;11.61;100.00
29169;BME280;16219;42.864;23.360;2022-11-03T01:26:22;96413.00;;;11.64;100.00
29169;BME280;16219;42.864;23.360;2022-11-03T01:28:49;96412.06;;;11.60;100.00
29169;BME280;16219;42.864;23.360;2022-11-03T01:31:18;96412.94;;;11.55;100.00
29169;BME280;16219;42.864;23.360;2022-11-03T01:33:49;96413.06;;;11.50;100.00
29169;BME280;16219;42.864;23.360;2022-11-03T01:36:16;96412.78;;;11.51;100.00
29169;BME280;16219;42.864;23.360;2022-11-03T01:38:44;96405.78;;;11.47;100.00
29169;BME280;16219;42.864;23.360;2022-11-03T01:41:14;96411.72;;;11.52;100.00
29169;BME280;16219;42.864;23.360;2022-11-03T01:43:41;96417.59;;;11.49;100.00
29169;BME280;16219;42.864;23.360;2022-11-03T01:46:15;96410.16;;;11.51;100.00
29169;BME280;16219;42.864;23.360;2022-11-03T01:48:48;96411.72;;;11.52;100.00
29169;BME280;16219;42.864;23.360;2022-11-03T01:51:19;96414.34;;;11.52;100.00
29169;BME280;16219;42.864;23.360;2022-11-03T01:53:48;96414.81;;;11.55;100.00
29169;BME280;16219;42.864;23.360;2022-11-03T01:56:16;96410.63;;;11.54;100.00
29169;BME280;16219;42.864;23.360;2022-11-03T01:58:46;96413.25;;;11.54;100.00
29169;BME280;16219;42.864;23.360;2022-11-03T02:01:15;96404.69;;;11.48;100.00
29169;BME280;16219;42.864;23.360;2022-11-03T02:03:45;96406.41;;;11.52;100.00
29169;BME280;16219;42.864;23.360;2022-11-03T02:06:15;96410.94;;;11.52;100.00
29169;BME280;16219;42.864;23.360;2022-11-03T02:08:47;96410.75;;;11.48;100.00
29169;BME280;16219;42.864;23.360;2022-11-03T02:11:15;96417.13;;;11.47;100.00
29169;BME280;16219;42.864;23.360;2022-11-03T02:13:59;96420.03;;;11.46;100.00
29169;BME280;16219;42.864;23.360;2022-11-03T02:16:28;96416.63;;;11.45;100.00
29169;BME280;16219;42.864;23.360;2022-11-03T02:18:58;96420.81;;;11.46;100.00
29169;BME280;16219;42.864;23.360;2022-11-03T02:21:29;96430.44;;;11.42;100.00
29169;BME280;16219;42.864;23.360;2022-11-03T02:24:05;96424.66;;;11.40;100.00
29169;BME280;16219;42.864;23.360;2022-11-03T02:26:36;96422.63;;;11.37;100.00
29169;BME280;16219;42.864;23.360;2022-11-03T02:29:03;96422.94;;;11.36;100.00
29169;BME280;16219;42.864;23.360;2022-11-03T02:31:37;96415.31;;;11.34;100.00
29169;BME280;16219;42.864;23.360;2022-11-03T02:34:11;96412.75;;;11.29;100.00
29169;BME280;16219;42.864;23.360;2022-11-03T02:36:44;96409.72;;;11.36;100.00
29169;BME280;16219;42.864;23.360;2022-11-03T02:39:16;96416.38;;;11.33;100.00
29169;BME280;16219;42.864;23.360;2022-11-03T02:41:47;96406.50;;;11.25;100.00
29169;BME280;16219;42.864;23.360;2022-11-03T02:44:17;96408.88;;;11.26;100.00
29169;BME280;16219;42.864;23.360;2022-11-03T02:46:48;96400.56;;;11.19;100.00
29169;BME280;16219;42.864;23.360;2022-11-03T02:49:16;96400.88;;;11.18;100.00
29169;BME280;16219;42.864;23.360;2022-11-03T02:51:43;96409.28;;;11.20;100.00
29169;BME280;16219;42.864;23.360;2022-11-03T02:54:15;96405.28;;;11.22;100.00
29169;BME280;16219;42.864;23.360;2022-11-03T02:56:49;96408.19;;;11.21;100.00
29169;BME280;16219;42.864;23.360;2022-11-03T02:59:19;96414.09;;;11.18;100.00
29169;BME280;16219;42.864;23.360;2022-11-03T03:01:53;96412.94;;;11.10;100.00
29169;BME280;16219;42.864;23.360;2022-11-03T03:04:26;96413.81;;;11.06;100.00
29169;BME280;16219;42.864;23.360;2022-11-03T03:06:58;96415.63;;;10.96;100.00
29169;BME280;16219;42.864;23.360;2022-11-03T03:09:30;96412.50;;;10.81;100.00
29169;BME280;16219;42.864;23.360;2022-11-03T03:12:04;96416.22;;;10.80;100.00
29169;BME280;16219;42.864;23.360;2022-11-03T03:14:34;96411.91;;;10.84;100.00
29169;BME280;16219;42.864;23.360;2022-11-03T03:17:04;96420.81;;;10.74;100.00
29169;BME280;16219;42.864;23.360;2022-11-03T03:19:40;96408.81;;;10.68;100.00
29169;BME280;16219;42.864;23.360;2022-11-03T03:22:13;96419.38;;;10.68;100.00
29169;BME280;16219;42.864;23.360;2022-11-03T03:24:48;96419.56;;;10.58;100.00
29169;BME280;16219;42.864;23.360;2022-11-03T03:27:20;96417.13;;;10.47;100.00
29169;BME280;16219;42.864;23.360;2022-11-03T03:29:52;96424.56;;;10.45;100.00
29169;BME280;16219;42.864;23.360;2022-11-03T03:32:22;96429.44;;;10.38;100.00
29169;BME280;16219;42.864;23.360;2022-11-03T03:34:51;96431.09;;;10.34;100.00
29169;BME280;16219;42.864;23.360;2022-11-03T03:37:20;96427.47;;;10.30;100.00
29169;BME280;16219;42.864;23.360;2022-11-03T03:39:51;96429.69;;;10.23;100.00
29169;BME280;16219;42.864;23.360;2022-11-03T03:42:21;96429.00;;;10.17;100.00
29169;BME280;16219;42.864;23.360;2022-11-03T03:44:51;96434.56;;;10.16;100.00
29169;BME280;16219;42.864;23.360;2022-11-03T03:47:22;96439.13;;;10.10;100.00
29169;BME280;16219;42.864;23.360;2022-11-03T03:49:51;96430.84;;;10.03;100.00
29169;BME280;16219;42.864;23.360;2022-11-03T03:52:18;96439.63;;;9.98;100.00
29169;BME280;16219;42.864;23.360;2022-11-03T03:54:46;96435.00;;;9.90;100.00
29169;BME280;16219;42.864;23.360;2022-11-03T03:57:14;96434.50;;;9.88;100.00
29169;BME280;16219;42.864;23.360;2022-11-03T03:59:43;96433.81;;;9.83;100.00
29169;BME280;16219;42.864;23.360;2022-11-03T04:02:11;96436.25;;;9.79;100.00
29169;BME280;16219;42.864;23.360;2022-11-03T04:04:38;96436.03;;;9.75;100.00
29169;BME280;16219;42.864;23.360;2022-11-03T04:07:06;96444.03;;;9.70;100.00
29169;BME280;16219;42.864;23.360;2022-11-03T04:09:50;96437.56;;;9.63;100.00
29169;BME280;16219;42.864;23.360;2022-11-03T04:12:18;96434.22;;;9.57;100.00
29169;BME280;16219;42.864;23.360;2022-11-03T04:15:04;96439.75;;;9.56;100.00
29169;BME280;16219;42.864;23.360;2022-11-03T04:17:49;96438.78;;;9.51;100.00
29169;BME280;16219;42.864;23.360;2022-11-03T04:20:33;96439.94;;;9.45;100.00
29169;BME280;16219;42.864;23.360;2022-11-03T04:23:18;96435.81;;;9.39;100.00
29169;BME280;16219;42.864;23.360;2022-11-03T04:25:47;96438.78;;;9.33;100.00
29169;BME280;16219;42.864;23.360;2022-11-03T04:28:14;96440.72;;;9.27;100.00
29169;BME280;16219;42.864;23.360;2022-11-03T04:30:43;96429.75;;;9.20;100.00
29169;BME280;16219;42.864;23.360;2022-11-03T04:33:13;96409.63;;;9.10;100.00
29169;BME280;16219;42.864;23.360;2022-11-03T04:35:41;96428.69;;;9.21;100.00
29169;BME280;16219;42.864;23.360;2022-11-03T04:38:20;96426.66;;;9.18;100.00
29169;BME280;16219;42.864;23.360;2022-11-03T04:40:49;96429.53;;;9.16;100.00
29169;BME280;16219;42.864;23.360;2022-11-03T04:43:19;96430.91;;;9.14;100.00
29169;BME280;16219;42.864;23.360;2022-11-03T04:45:48;96430.97;;;9.09;100.00
29169;BME280;16219;42.864;23.360;2022-11-03T04:48:18;96431.63;;;9.00;100.00
29169;BME280;16219;42.864;23.360;2022-11-03T04:50:51;96427.19;;;8.96;100.00
29169;BME280;16219;42.864;23.360;2022-11-03T04:53:20;96436.38;;;8.98;100.00
29169;BME280;16219;42.864;23.360;2022-11-03T04:55:49;96434.25;;;9.00;100.00
29169;BME280;16219;42.864;23.360;2022-11-03T04:58:19;96443.28;;;8.94;100.00
29169;BME280;16219;42.864;23.360;2022-11-03T05:00:48;96436.16;;;8.95;100.00
29169;BME280;16219;42.864;23.360;2022-11-03T05:03:20;96440.06;;;8.97;100.00
29169;BME280;16219;42.864;23.360;2022-11-03T05:05:50;96444.91;;;8.90;100.00
29169;BME280;16219;42.864;23.360;2022-11-03T05:08:18;96449.72;;;8.83;100.00
29169;BME280;16219;42.864;23.360;2022-11-03T05:10:46;96426.19;;;8.73;100.00
29169;BME280;16219;42.864;23.360;2022-11-03T05:13:18;96452.88;;;8.85;100.00
29169;BME280;16219;42.864;23.360;2022-11-03T05:15:49;96442.81;;;8.87;100.00
29169;BME280;16219;42.864;23.360;2022-11-03T05:18:19;96448.69;;;8.84;100.00
29169;BME280;16219;42.864;23.360;2022-11-03T05:20:51;96454.50;;;8.81;100.00
29169;BME280;16219;42.864;23.360;2022-11-03T05:23:20;96439.41;;;8.87;100.00
29169;BME280;16219;42.864;23.360;2022-11-03T05:25:50;96444.41;;;8.88;100.00
29169;BME280;16219;42.864;23.360;2022-11-03T05:28:24;96448.03;;;8.92;100.00
29169;BME280;16219;42.864;23.360;2022-11-03T05:30:53;96459.63;;;8.91;100.00
29169;BME280;16219;42.864;23.360;2022-11-03T05:33:25;96453.78;;;8.94;100.00
29169;BME280;16219;42.864;23.360;2022-11-03T05:35:53;96458.13;;;8.85;100.00
29169;BME280;16219;42.864;23.360;2022-11-03T05:38:21;96467.25;;;8.93;100.00
29169;BME280;16219;42.864;23.360;2022-11-03T05:40:50;96461.47;;;8.91;100.00
29169;BME280;16219;42.864;23.360;2022-11-03T05:43:20;96464.69;;;9.07;100.00
29169;BME280;16219;42.864;23.360;2022-11-03T05:45:49;96472.28;;;9.08;100.00
29169;BME280;16219;42.864;23.360;2022-11-03T05:48:23;96473.81;;;9.14;100.00
29169;BME280;16219;42.864;23.360;2022-11-03T05:50:53;96481.63;;;9.19;100.00
29169;BME280;16219;42.864;23.360;2022-11-03T05:53:28;96478.16;;;9.24;100.00
29169;BME280;16219;42.864;23.360;2022-11-03T05:55:58;96477.50;;;9.32;100.00
29169;BME280;16219;42.864;23.360;2022-11-03T05:58:29;96484.25;;;9.38;100.00
29169;BME280;16219;42.864;23.360;2022-11-03T06:00:57;96490.25;;;9.44;100.00
29169;BME280;16219;42.864;23.360;2022-11-03T06:03:28;96474.16;;;9.45;100.00
29169;BME280;16219;42.864;23.360;2022-11-03T06:05:56;96492.66;;;9.59;100.00
29169;BME280;16219;42.864;23.360;2022-11-03T06:08:25;96489.47;;;9.62;100.00
29169;BME280;16219;42.864;23.360;2022-11-03T06:10:56;96486.47;;;9.69;100.00
29169;BME280;16219;42.864;23.360;2022-11-03T06:13:26;96504.59;;;9.89;100.00
29169;BME280;16219;42.864;23.360;2022-11-03T06:15:57;96499.16;;;9.99;100.00
29169;BME280;16219;42.864;23.360;2022-11-03T06:18:30;96498.22;;;10.09;100.00
29169;BME280;16219;42.864;23.360;2022-11-03T06:21:04;96505.91;;;10.24;100.00
29169;BME280;16219;42.864;23.360;2022-11-03T06:23:33;96514.91;;;10.37;100.00
29169;BME280;16219;42.864;23.360;2022-11-03T06:26:02;96506.34;;;10.45;100.00
29169;BME280;16219;42.864;23.360;2022-11-03T06:28:33;96506.72;;;10.52;100.00
29169;BME280;16219;42.864;23.360;2022-11-03T06:31:03;96517.69;;;10.73;100.00
29169;BME280;16219;42.864;23.360;2022-11-03T06:33:34;96514.75;;;10.89;100.00
29169;BME280;16219;42.864;23.360;2022-11-03T06:36:09;96522.19;;;11.00;100.00
29169;BME280;16219;42.864;23.360;2022-11-03T06:38:39;96518.75;;;11.14;100.00
29169;BME280;16219;42.864;23.360;2022-11-03T06:41:13;96515.13;;;11.23;100.00
29169;BME280;16219;42.864;23.360;2022-11-03T06:43:46;96518.69;;;11.41;100.00
29169;BME280;16219;42.864;23.360;2022-11-03T06:46:18;96518.09;;;11.44;100.00
29169;BME280;16219;42.864;23.360;2022-11-03T06:48:48;96515.94;;;11.46;100.00
29169;BME280;16219;42.864;23.360;2022-11-03T06:51:19;96521.22;;;11.46;100.00
29169;BME280;16219;42.864;23.360;2022-11-03T06:53:47;96509.75;;;11.51;100.00
29169;BME280;16219;42.864;23.360;2022-11-03T06:56:19;96486.34;;;11.36;100.00
29169;BME280;16219;42.864;23.360;2022-11-03T06:58:48;96519.34;;;11.61;100.00
29169;BME280;16219;42.864;23.360;2022-11-03T07:01:20;96513.28;;;11.60;100.00
29169;BME280;16219;42.864;23.360;2022-11-03T07:03:50;96515.38;;;11.72;100.00
29169;BME280;16219;42.864;23.360;2022-11-03T07:06:20;96526.72;;;11.86;100.00
29169;BME280;16219;42.864;23.360;2022-11-03T07:08:50;96525.50;;;11.92;100.00
29169;BME280;16219;42.864;23.360;2022-11-03T07:11:21;96516.03;;;11.91;100.00
29169;BME280;16219;42.864;23.360;2022-11-03T07:13:51;96518.84;;;11.95;100.00
29169;BME280;16219;42.864;23.360;2022-11-03T07:16:24;96519.81;;;11.99;100.00
29169;BME280;16219;42.864;23.360;2022-11-03T07:18:54;96513.13;;;12.01;100.00
29169;BME280;16219;42.864;23.360;2022-11-03T07:21:31;96519.38;;;12.06;100.00
29169;BME280;16219;42.864;23.360;2022-11-03T07:23:59;96518.00;;;12.08;100.00
29169;BME280;16219;42.864;23.360;2022-11-03T07:26:28;96518.97;;;12.12;100.00
29169;BME280;16219;42.864;23.360;2022-11-03T07:28:55;96519.78;;;12.21;100.00
29169;BME280;16219;42.864;23.360;2022-11-03T07:31:24;96515.69;;;12.38;100.00
29169;BME280;16219;42.864;23.360;2022-11-03T07:33:58;96515.47;;;12.57;100.00
29169;BME280;16219;42.864;23.360;2022-11-03T07:36:27;96511.91;;;12.61;100.00
29169;BME280;16219;42.864;23.360;2022-11-03T07:38:58;96511.00;;;12.66;100.00
29169;BME280;16219;42.864;23.360;2022-11-03T07:41:30;96506.31;;;12.63;100.00
29169;BME280;16219;42.864;23.360;2022-11-03T07:43:59;96511.00;;;12.66;100.00
29169;BME280;16219;42.864;23.360;2022-11-03T07:46:28;96506.63;;;12.70;100.00
29169;BME280;16219;42.864;23.360;2022-11-03T07:48:57;96492.34;;;12.71;100.00
29169;BME280;16219;42.864;23.360;2022-11-03T07:51:28;96494.84;;;12.76;100.00
29169;BME280;16219;42.864;23.360;2022-11-03T07:54:02;96491.00;;;12.99;100.00
29169;BME280;16219;42.864;23.360;2022-11-03T07:56:33;96482.47;;;13.20;100.00
29169;BME280;16219;42.864;23.360;2022-11-03T07:59:09;96489.41;;;13.38;100.00
29169;BME280;16219;42.864;23.360;2022-11-03T08:01:40;96485.06;;;13.60;100.00
29169;BME280;16219;42.864;23.360;2022-11-03T08:04:11;96477.22;;;13.72;100.00
29169;BME280;16219;42.864;23.360;2022-11-03T08:06:39;96464.13;;;13.84;100.00
29169;BME280;16219;42.864;23.360;2022-11-03T08:09:06;96482.66;;;14.19;100.00
29169;BME280;16219;42.864;23.360;2022-11-03T08:11:33;96470.88;;;14.37;100.00
29169;BME280;16219;42.864;23.360;2022-11-03T08:14:00;96476.16;;;14.55;100.00
29169;BME280;16219;42.864;23.360;2022-11-03T08:16:28;96478.91;;;14.67;100.00
29169;BME280;16219;42.864;23.360;2022-11-03T08:18:55;96474.78;;;14.78;100.00
29169;BME280;16219;42.864;23.360;2022-11-03T08:21:24;96477.69;;;14.94;100.00
29169;BME280;16219;42.864;23.360;2022-11-03T08:23:51;96463.06;;;15.09;100.00
29169;BME280;16219;42.864;23.360;2022-11-03T08:26:18;96471.56;;;15.23;100.00
29169;BME280;16219;42.864;23.360;2022-11-03T08:28:45;96466.25;;;15.23;100.00
29169;BME280;16219;42.864;23.360;2022-11-03T08:31:13;96458.69;;;15.34;100.00
29169;BME280;16219;42.864;23.360;2022-11-03T08:33:40;96451.56;;;15.46;100.00
29169;BME280;16219;42.864;23.360;2022-11-03T08:36:08;96451.16;;;15.57;100.00
29169;BME280;16219;42.864;23.360;2022-11-03T08:38:37;96451.41;;;15.64;100.00
29169;BME280;16219;42.864;23.360;2022-11-03T08:41:04;96442.78;;;15.67;100.00
29169;BME280;16219;42.864;23.360;2022-11-03T08:43:31;96448.94;;;15.80;100.00
29169;BME280;16219;42.864;23.360;2022-11-03T08:45:58;96450.34;;;15.98;100.00
29169;BME280;16219;42.864;23.360;2022-11-03T08:48:26;96451.06;;;16.19;98.60
29169;BME280;16219;42.864;23.360;2022-11-03T08:50:54;96438.09;;;16.30;100.00
29169;BME280;16219;42.864;23.360;2022-11-03T08:53:22;96443.13;;;16.44;99.85
29169;BME280;16219;42.864;23.360;2022-11-03T08:55:51;96436.69;;;16.57;97.97
29169;BME280;16219;42.864;23.360;2022-11-03T08:58:19;96443.44;;;16.67;97.31
29169;BME280;16219;42.864;23.360;2022-11-03T09:00:46;96432.72;;;16.76;97.26
29169;BME280;16219;42.864;23.360;2022-11-03T09:03:13;96434.38;;;16.80;91.82
29169;BME280;16219;42.864;23.360;2022-11-03T09:05:40;96419.69;;;16.86;95.91
29169;BME280;16219;42.864;23.360;2022-11-03T09:08:08;96421.44;;;17.07;93.58
29169;BME280;16219;42.864;23.360;2022-11-03T09:10:35;96419.13;;;17.17;91.27
29169;BME280;16219;42.864;23.360;2022-11-03T09:13:04;96415.22;;;17.15;90.46
29169;BME280;16219;42.864;23.360;2022-11-03T09:15:31;96407.84;;;17.24;95.08
29169;BME280;16219;42.864;23.360;2022-11-03T09:17:58;96412.75;;;17.34;92.89
29169;BME280;16219;42.864;23.360;2022-11-03T09:20:25;96408.72;;;17.40;88.88
29169;BME280;16219;42.864;23.360;2022-11-03T09:22:53;96402.44;;;17.48;91.05
29169;BME280;16219;42.864;23.360;2022-11-03T09:25:20;96401.28;;;17.62;89.77
29169;BME280;16219;42.864;23.360;2022-11-03T09:27:47;96392.44;;;17.73;87.99
29169;BME280;16219;42.864;23.360;2022-11-03T09:30:15;96383.53;;;17.82;87.58
29169;BME280;16219;42.864;23.360;2022-11-03T09:32:43;96387.88;;;18.02;83.16
29169;BME280;16219;42.864;23.360;2022-11-03T09:35:11;96384.59;;;18.09;84.10
29169;BME280;16219;42.864;23.360;2022-11-03T09:37:39;96376.25;;;18.26;80.19
29169;BME280;16219;42.864;23.360;2022-11-03T09:40:07;96379.38;;;18.28;80.41
29169;BME280;16219;42.864;23.360;2022-11-03T09:42:35;96378.84;;;18.38;77.92
29169;BME280;16219;42.864;23.360;2022-11-03T09:45:05;96367.03;;;18.39;79.48
29169;BME280;16219;42.864;23.360;2022-11-03T09:47:36;96369.59;;;18.52;85.41
29169;BME280;16219;42.864;23.360;2022-11-03T09:50:09;96367.19;;;18.62;79.85
29169;BME280;16219;42.864;23.360;2022-11-03T09:52:38;96358.88;;;18.67;78.81
29169;BME280;16219;42.864;23.360;2022-11-03T09:55:12;96362.81;;;18.70;81.52
29169;BME280;16219;42.864;23.360;2022-11-03T09:57:41;96359.06;;;18.75;78.70
29169;BME280;16219;42.864;23.360;2022-11-03T10:00:15;96355.53;;;18.86;76.19
29169;BME280;16219;42.864;23.360;2022-11-03T10:02:45;96347.22;;;18.91;80.86
29169;BME280;16219;42.864;23.360;2022-11-03T10:05:15;96332.72;;;18.92;80.00
29169;BME280;16219;42.864;23.360;2022-11-03T10:07:45;96344.47;;;19.07;76.39
29169;BME280;16219;42.864;23.360;2022-11-03T10:10:15;96346.53;;;19.14;74.74
29169;BME280;16219;42.864;23.360;2022-11-03T10:12:42;96330.06;;;19.12;74.79
29169;BME280;16219;42.864;23.360;2022-11-03T10:15:13;96331.41;;;19.21;76.56
29169;BME280;16219;42.864;23.360;2022-11-03T10:17:41;96320.78;;;19.25;76.41
29169;BME280;16219;42.864;23.360;2022-11-03T10:20:12;96323.63;;;19.36;72.53
29169;BME280;16219;42.864;23.360;2022-11-03T10:22:41;96312.22;;;19.39;70.63
29169;BME280;16219;42.864;23.360;2022-11-03T10:25:29;96312.41;;;19.49;71.71
29169;BME280;16219;42.864;23.360;2022-11-03T10:28:17;96310.94;;;19.52;72.81
29169;BME280;16219;42.864;23.360;2022-11-03T10:30:52;96305.66;;;19.56;72.78
29169;BME280;16219;42.864;23.360;2022-11-03T10:33:27;96300.94;;;19.68;67.92
29169;BME280;16219;42.864;23.360;2022-11-03T10:35:56;96291.00;;;19.69;70.97
29169;BME280;16219;42.864;23.360;2022-11-03T10:38:26;96289.69;;;19.82;68.27
29169;BME280;16219;42.864;23.360;2022-11-03T10:40:54;96278.97;;;19.82;73.55
29169;BME280;16219;42.864;23.360;2022-11-03T10:43:21;96280.25;;;19.88;69.73
29169;BME280;16219;42.864;23.360;2022-11-03T10:45:48;96283.91;;;20.03;65.16
29169;BME280;16219;42.864;23.360;2022-11-03T10:48:20;96282.38;;;20.02;66.17
29169;BME280;16219;42.864;23.360;2022-11-03T10:50:50;96275.94;;;20.07;66.94
29169;BME280;16219;42.864;23.360;2022-11-03T10:53:19;96273.97;;;20.04;68.85
29169;BME280;16219;42.864;23.360;2022-11-03T10:55:47;96271.41;;;20.11;68.00
29169;BME280;16219;42.864;23.360;2022-11-03T10:58:14;96269.94;;;20.17;70.20
29169;BME280;16219;42.864;23.360;2022-11-03T11:00:41;96254.81;;;20.28;67.86
29169;BME280;16219;42.864;23.360;2022-11-03T11:03:10;96247.09;;;20.23;68.75
29169;BME280;16219;42.864;23.360;2022-11-03T11:05:44;96251.09;;;20.36;63.20
29169;BME280;16219;42.864;23.360;2022-11-03T11:08:12;96231.16;;;20.34;61.31
29169;BME280;16219;42.864;23.360;2022-11-03T11:10:45;96229.72;;;20.40;59.57
29169;BME280;16219;42.864;23.360;2022-11-03T11:13:26;96241.38;;;20.51;62.28
29169;BME280;16219;42.864;23.360;2022-11-03T11:15:54;96239.22;;;20.60;59.00
29169;BME280;16219;42.864;23.360;2022-11-03T11:21:57;96226.03;;;20.48;54.92
29169;BME280;16219;42.864;23.360;2022-11-03T11:24:59;96221.50;;;20.56;57.51
29169;BME280;16219;42.864;23.360;2022-11-03T11:27:52;96222.41;;;20.67;57.60
29169;BME280;16219;42.864;23.360;2022-11-03T11:33:41;96209.22;;;20.85;54.05
29169;BME280;16219;42.864;23.360;2022-11-03T11:36:26;96205.84;;;20.91;53.84
29169;BME280;16219;42.864;23.360;2022-11-03T11:38:58;96197.44;;;20.93;54.31
29169;BME280;16219;42.864;23.360;2022-11-03T11:47:46;96191.44;;;21.07;50.32
29169;BME280;16219;42.864;23.360;2022-11-03T11:50:38;96187.66;;;21.11;52.11
29169;BME280;16219;42.864;23.360;2022-11-03T11:53:11;96184.22;;;21.14;50.50
29169;BME280;16219;42.864;23.360;2022-11-03T11:55:42;96183.13;;;21.19;51.29
29169;BME280;16219;42.864;23.360;2022-11-03T11:58:18;96180.13;;;21.28;49.64
29169;BME280;16219;42.864;23.360;2022-11-03T12:00:57;96178.94;;;21.21;48.33
29169;BME280;16219;42.864;23.360;2022-11-03T12:03:32;96178.59;;;21.27;46.58
29169;BME280;16219;42.864;23.360;2022-11-03T12:06:00;96174.75;;;21.24;46.73
29169;BME280;16219;42.864;23.360;2022-11-03T12:08:29;96167.44;;;21.21;47.17
29169;BME280;16219;42.864;23.360;2022-11-03T12:10:58;96153.22;;;21.17;46.71
29169;BME280;16219;42.864;23.360;2022-11-03T12:13:45;96161.69;;;21.22;47.23
29169;BME280;16219;42.864;23.360;2022-11-03T12:16:31;96158.66;;;21.24;46.48
29169;BME280;16219;42.864;23.360;2022-11-03T12:19:31;96150.94;;;21.19;46.87
29169;BME280;16219;42.864;23.360;2022-11-03T12:21:59;96140.19;;;21.19;45.83
29169;BME280;16219;42.864;23.360;2022-11-03T12:24:34;96140.25;;;21.26;46.00
29169;BME280;16219;42.864;23.360;2022-11-03T12:27:03;96142.97;;;21.30;45.14
29169;BME280;16219;42.864;23.360;2022-11-03T12:29:30;96134.22;;;21.33;45.40
29169;BME280;16219;42.864;23.360;2022-11-03T12:31:59;96132.19;;;21.22;45.41
29169;BME280;16219;42.864;23.360;2022-11-03T12:34:26;96137.19;;;21.28;46.13
29169;BME280;16219;42.864;23.360;2022-11-03T12:36:53;96134.13;;;21.26;45.15
29169;BME280;16219;42.864;23.360;2022-11-03T12:39:20;96127.19;;;21.21;44.72
29169;BME280;16219;42.864;23.360;2022-11-03T12:41:47;96122.56;;;21.18;44.42
29169;BME280;16219;42.864;23.360;2022-11-03T12:44:14;96112.63;;;21.22;44.80
29169;BME280;16219;42.864;23.360;2022-11-03T12:46:41;96115.72;;;21.24;43.25
29169;BME280;16219;42.864;23.360;2022-11-03T12:49:10;96111.09;;;21.21;44.48
29169;BME280;16219;42.864;23.360;2022-11-03T12:51:37;96111.78;;;21.14;44.51
29169;BME280;16219;42.864;23.360;2022-11-03T12:54:04;96116.34;;;21.10;44.13
29169;BME280;16219;42.864;23.360;2022-11-03T12:56:32;96112.91;;;21.10;43.80
29169;BME280;16219;42.864;23.360;2022-11-03T12:59:00;96109.88;;;21.11;43.16
29169;BME280;16219;42.864;23.360;2022-11-03T13:01:27;96112.13;;;21.09;44.55
29169;BME280;16219;42.864;23.360;2022-11-03T13:03:54;96102.13;;;21.06;42.54
29169;BME280;16219;42.864;23.360;2022-11-03T13:06:22;96097.13;;;21.01;42.62
29169;BME280;16219;42.864;23.360;2022-11-03T13:08:51;96084.13;;;21.07;43.92
29169;BME280;16219;42.864;23.360;2022-11-03T13:11:18;96080.56;;;20.92;41.87
29169;BME280;16219;42.864;23.360;2022-11-03T13:14:02;96087.50;;;20.96;42.51
29169;BME280;16219;42.864;23.360;2022-11-03T13:16:31;96097.13;;;21.01;42.21